createdAt,value
2019-01-04T00:00:41.225Z,9.20
2019-01-04T00:03:09.537Z,9.00
2019-01-04T00:05:37.877Z,8.67
2019-01-04T00:08:06.180Z,8.83
2019-01-04T00:10:34.473Z,9.57
2019-01-04T00:13:02.753Z,9.17
2019-01-04T00:15:31.218Z,9.47
2019-01-04T00:17:59.593Z,8.50
2019-01-04T00:20:28.051Z,8.97
2019-01-04T00:22:56.415Z,9.20
2019-01-04T00:25:24.799Z,8.83
2019-01-04T00:27:53.229Z,9.47
2019-01-04T00:30:22.683Z,9.87
2019-01-04T00:32:51.077Z,8.90
2019-01-04T00:35:19.391Z,9.20
2019-01-04T00:37:47.768Z,9.23
2019-01-04T00:40:16.136Z,9.07
2019-01-04T00:42:44.543Z,9.17
2019-01-04T00:45:12.855Z,8.73
2019-01-04T00:47:41.207Z,8.77
2019-01-04T00:50:09.519Z,8.43
2019-01-04T00:52:37.873Z,8.23
2019-01-04T00:55:12.111Z,9.03
2019-01-04T00:57:52.398Z,9.00
2019-01-04T01:00:38.897Z,8.57
2019-01-04T01:03:25.451Z,7.63
2019-01-04T01:06:16.774Z,7.73
2019-01-04T01:09:23.205Z,7.80
2019-01-04T01:12:11.486Z,9.00
2019-01-04T01:15:01.118Z,10.70
2019-01-04T01:18:05.797Z,10.60
2019-01-04T01:21:05.918Z,10.33
2019-01-04T01:24:12.270Z,10.40
2019-01-04T01:27:01.674Z,11.37
2019-01-04T01:30:01.362Z,11.57
2019-01-04T01:32:50.972Z,12.20
2019-01-04T01:35:30.636Z,12.10
2019-01-04T01:38:05.135Z,12.10
2019-01-04T01:40:48.816Z,12.63
2019-01-04T01:43:38.494Z,11.90
2019-01-04T01:46:21.947Z,12.37
2019-01-04T01:48:56.357Z,13.00
2019-01-04T01:51:27.987Z,12.20
2019-01-04T01:53:56.273Z,13.13
2019-01-04T01:56:24.652Z,12.47
2019-01-04T01:58:52.995Z,12.17
2019-01-04T02:01:21.356Z,11.67
2019-01-04T02:03:49.663Z,12.50
2019-01-04T02:06:18.016Z,12.60
2019-01-04T02:08:46.405Z,12.47
2019-01-04T02:11:14.767Z,12.40
2019-01-04T02:13:43.147Z,11.27
2019-01-04T02:16:11.521Z,11.00
2019-01-04T02:18:39.959Z,10.90
2019-01-04T02:21:08.261Z,10.70
2019-01-04T02:23:36.631Z,10.73
2019-01-04T02:26:05.081Z,11.40
2019-01-04T02:28:33.516Z,10.37
2019-01-04T02:31:01.801Z,10.87
2019-01-04T02:33:30.102Z,9.57
2019-01-04T02:35:58.409Z,10.20
2019-01-04T02:38:26.781Z,8.50
2019-01-04T02:40:55.073Z,7.87
2019-01-04T02:43:23.457Z,7.77
2019-01-04T02:45:51.789Z,7.17
2019-01-04T02:48:20.113Z,7.80
2019-01-04T02:50:48.552Z,7.30
2019-01-04T02:53:16.948Z,7.13
2019-01-04T02:55:45.232Z,7.13
2019-01-04T02:58:13.612Z,6.70
2019-01-04T03:00:41.972Z,6.77
2019-01-04T03:03:10.268Z,6.57
2019-01-04T03:05:38.719Z,6.90
2019-01-04T03:08:07.206Z,6.57
2019-01-04T03:10:35.491Z,6.90
2019-01-04T03:13:03.876Z,6.50
2019-01-04T03:15:32.228Z,6.67
2019-01-04T03:18:00.525Z,5.90
2019-01-04T03:20:28.879Z,5.63
2019-01-04T03:22:57.253Z,5.67
2019-01-04T03:25:25.559Z,6.13
2019-01-04T03:27:53.952Z,5.00
2019-01-04T03:30:22.373Z,5.10
2019-01-04T03:32:50.740Z,5.03
2019-01-04T03:35:19.022Z,4.80
2019-01-04T03:37:47.424Z,5.20
2019-01-04T03:40:15.707Z,5.33
2019-01-04T03:42:44.107Z,4.70
2019-01-04T03:45:12.491Z,4.77
2019-01-04T03:47:40.851Z,5.27
2019-01-04T03:50:09.162Z,5.20
2019-01-04T03:52:37.521Z,5.10
2019-01-04T03:55:05.895Z,5.77
2019-01-04T03:57:34.251Z,5.37
2019-01-04T04:00:02.567Z,6.03
2019-01-04T04:02:31.123Z,6.33
2019-01-04T04:04:59.424Z,5.93
2019-01-04T04:07:27.783Z,5.80
2019-01-04T04:09:56.083Z,6.33
2019-01-04T04:12:24.516Z,6.40
2019-01-04T04:14:52.838Z,5.87
2019-01-04T04:17:21.185Z,5.83
2019-01-04T04:19:49.614Z,5.57
2019-01-04T04:22:17.972Z,5.43
2019-01-04T04:24:46.278Z,5.57
2019-01-04T04:27:14.621Z,5.70
2019-01-04T04:29:43.009Z,6.27
2019-01-04T04:32:11.298Z,5.87
2019-01-04T04:34:39.675Z,5.33
2019-01-04T04:37:08.016Z,4.77
2019-01-04T04:39:36.330Z,5.00
2019-01-04T04:42:04.692Z,5.50
2019-01-04T04:44:33.088Z,4.87
2019-01-04T04:47:01.432Z,4.60
2019-01-04T04:49:29.948Z,4.10
2019-01-04T04:51:58.251Z,4.40
2019-01-04T04:54:26.598Z,4.37
2019-01-04T04:56:54.910Z,4.47
2019-01-04T04:59:23.254Z,4.00
2019-01-04T05:01:51.550Z,3.83
2019-01-04T05:04:19.837Z,4.30
2019-01-04T05:06:48.210Z,3.83
2019-01-04T05:09:16.568Z,4.37
2019-01-04T05:11:44.949Z,5.43
2019-01-04T05:14:13.298Z,4.43
2019-01-04T05:16:41.617Z,5.00
2019-01-04T05:19:10.051Z,5.03
2019-01-04T05:21:38.344Z,5.07
2019-01-04T05:24:06.660Z,5.10
2019-01-04T05:26:35.189Z,5.70
2019-01-04T05:29:03.586Z,6.33
2019-01-04T05:31:31.949Z,6.10
2019-01-04T05:34:00.328Z,6.40
2019-01-04T05:36:29.123Z,6.20
2019-01-04T05:38:57.648Z,6.67
2019-01-04T05:41:25.977Z,6.70
2019-01-04T05:43:54.280Z,7.13
2019-01-04T05:46:22.840Z,7.50
2019-01-04T05:48:52.731Z,7.20
2019-01-04T05:51:21.239Z,6.90
2019-01-04T05:53:49.543Z,6.57
2019-01-04T05:56:17.903Z,6.87
2019-01-04T05:58:46.212Z,7.47
2019-01-04T06:01:14.500Z,7.73
2019-01-04T06:03:42.811Z,7.67
2019-01-04T06:06:11.298Z,9.97
2019-01-04T06:08:39.685Z,8.90
2019-01-04T06:11:08.067Z,9.07
2019-01-04T06:13:36.360Z,9.70
2019-01-04T06:16:04.682Z,9.40
2019-01-04T06:18:32.986Z,9.53
2019-01-04T06:21:01.341Z,9.67
2019-01-04T06:23:29.674Z,9.93
2019-01-04T06:25:58.024Z,9.53
2019-01-04T06:28:26.318Z,9.83
2019-01-04T06:30:54.612Z,9.47
2019-01-04T06:33:22.995Z,12.80
2019-01-04T06:35:51.281Z,13.00
2019-01-04T06:38:19.594Z,12.57
2019-01-04T06:40:47.888Z,13.57
2019-01-04T06:43:16.194Z,14.60
2019-01-04T06:45:44.627Z,14.30
2019-01-04T06:48:13.000Z,14.57
2019-01-04T06:50:41.304Z,15.83
2019-01-04T06:53:09.679Z,15.57
2019-01-04T06:55:50.072Z,15.60
2019-01-04T06:58:18.367Z,16.23
2019-01-04T07:00:46.666Z,15.20
2019-01-04T07:03:14.987Z,15.50
2019-01-04T07:05:43.352Z,15.70
2019-01-04T07:08:11.634Z,15.63
2019-01-04T07:10:39.943Z,15.67
2019-01-04T07:13:08.310Z,16.03
2019-01-04T07:15:36.611Z,15.20
2019-01-04T07:18:04.906Z,15.67
2019-01-04T07:20:33.353Z,14.90
2019-01-04T07:23:01.701Z,14.97
2019-01-04T07:25:30.025Z,16.07
2019-01-04T07:27:58.366Z,15.03
2019-01-04T07:30:26.704Z,16.03
2019-01-04T07:32:55.399Z,16.17
2019-01-04T07:35:23.749Z,16.27
2019-01-04T07:37:52.068Z,17.63
2019-01-04T07:40:23.379Z,16.23
2019-01-04T07:42:52.776Z,16.03
2019-01-04T07:45:21.846Z,16.87
2019-01-04T07:47:50.181Z,16.10
2019-01-04T07:50:18.674Z,15.97
2019-01-04T07:52:46.965Z,16.03
2019-01-04T07:55:15.270Z,17.23
2019-01-04T07:57:43.624Z,16.80
2019-01-04T08:00:12.677Z,16.47
2019-01-04T08:02:42.671Z,16.20
2019-01-04T08:05:16.248Z,16.77
2019-01-04T08:07:49.988Z,16.13
2019-01-04T08:10:18.326Z,16.57
2019-01-04T08:12:46.686Z,15.83
2019-01-04T08:15:14.988Z,17.27
2019-01-04T08:17:43.337Z,16.20
2019-01-04T08:20:11.982Z,15.70
2019-01-04T08:22:40.346Z,15.07
2019-01-04T08:25:08.921Z,12.23
2019-01-04T08:27:37.266Z,12.47
2019-01-04T08:30:11.035Z,11.67
2019-01-04T08:32:39.331Z,11.70
2019-01-04T08:35:07.720Z,11.70
2019-01-04T08:37:36.083Z,11.80
2019-01-04T08:40:07.026Z,11.37
2019-01-04T08:42:35.402Z,11.00
2019-01-04T08:45:03.761Z,11.50
2019-01-04T08:47:35.072Z,13.13
2019-01-04T08:50:04.645Z,15.00
2019-01-04T08:52:37.503Z,14.17
2019-01-04T08:55:08.333Z,13.77
2019-01-04T08:57:36.748Z,13.40
2019-01-04T09:00:10.953Z,14.33
2019-01-04T09:02:39.263Z,12.80
2019-01-04T09:05:07.626Z,12.67
2019-01-04T09:07:36.033Z,11.73
2019-01-04T09:10:05.738Z,13.07
2019-01-04T09:12:34.043Z,11.63
2019-01-04T09:15:02.414Z,13.53
2019-01-04T09:17:30.732Z,13.40
2019-01-04T09:20:01.334Z,13.73
2019-01-04T09:22:29.764Z,14.10
2019-01-04T09:25:01.223Z,14.00
2019-01-04T09:27:29.868Z,13.33
2019-01-04T09:29:58.232Z,13.43
2019-01-04T09:32:29.360Z,13.67
2019-01-04T09:34:57.722Z,13.70
2019-01-04T09:37:26.038Z,12.87
2019-01-04T09:39:54.315Z,11.53
2019-01-04T09:42:22.614Z,12.17
2019-01-04T09:44:52.653Z,12.60
2019-01-04T09:47:26.112Z,12.67
2019-01-04T09:49:57.412Z,14.13
2019-01-04T09:52:25.814Z,14.47
2019-01-04T09:54:54.167Z,15.70
2019-01-04T09:57:23.636Z,15.13
2019-01-04T10:02:27.094Z,15.97
2019-01-04T10:04:55.409Z,16.20
2019-01-04T10:07:27.757Z,17.63
2019-01-04T10:09:56.134Z,18.57
2019-01-04T10:12:25.007Z,17.93
2019-01-04T10:14:55.377Z,17.87
2019-01-04T10:17:23.419Z,17.40
2019-01-04T10:19:51.713Z,18.73
2019-01-04T10:22:20.391Z,19.30
2019-01-04T10:24:52.975Z,20.00
2019-01-04T10:27:21.447Z,19.50
2019-01-04T10:29:49.735Z,21.53
2019-01-04T10:32:20.825Z,20.70
2019-01-04T10:34:49.200Z,21.33
2019-01-04T10:37:17.579Z,22.17
2019-01-04T10:39:45.871Z,21.03
2019-01-04T10:42:14.159Z,23.20
2019-01-04T10:44:44.177Z,24.23
2019-01-04T10:47:13.844Z,22.10
2019-01-04T10:49:42.256Z,22.03
2019-01-04T10:52:11.713Z,21.43
2019-01-04T10:54:40.017Z,21.67
2019-01-04T10:57:21.976Z,21.03
2019-01-04T10:59:50.284Z,21.80
2019-01-04T11:02:18.763Z,22.07
2019-01-04T11:04:47.430Z,21.47
2019-01-04T11:07:15.848Z,21.47
2019-01-04T11:09:50.816Z,22.07
2019-01-04T11:12:20.882Z,22.30
2019-01-04T11:14:49.272Z,23.77
2019-01-04T11:17:17.650Z,23.37
2019-01-04T11:19:48.994Z,23.37
2019-01-04T11:22:39.744Z,22.90
2019-01-04T11:25:44.458Z,23.33
2019-01-04T11:28:25.058Z,24.77
2019-01-04T11:30:56.696Z,23.53
2019-01-04T11:33:27.018Z,25.47
2019-01-04T11:36:10.314Z,26.83
2019-01-04T11:38:56.748Z,25.73
2019-01-04T11:41:43.461Z,27.23
2019-01-04T11:44:40.680Z,25.63
2019-01-04T11:47:20.023Z,25.50
2019-01-04T11:50:03.247Z,24.60
2019-01-04T11:52:34.907Z,25.27
2019-01-04T11:55:03.269Z,25.30
2019-01-04T11:57:31.561Z,25.20
2019-01-04T11:59:59.915Z,25.33
2019-01-04T12:02:28.217Z,25.33
2019-01-04T12:04:58.175Z,26.73
2019-01-04T12:07:26.489Z,26.83
2019-01-04T12:09:55.205Z,28.60
2019-01-04T12:12:23.563Z,28.97
2019-01-04T12:14:51.881Z,28.90
2019-01-04T12:17:20.343Z,28.77
2019-01-04T12:20:08.098Z,30.07
2019-01-04T12:22:39.378Z,31.57
2019-01-04T12:25:07.752Z,30.50
2019-01-04T12:27:36.133Z,31.47
2019-01-04T12:30:06.684Z,28.73
2019-01-04T12:32:35.037Z,27.60
2019-01-04T12:35:03.461Z,27.43
2019-01-04T12:37:31.776Z,28.57
2019-01-04T12:40:00.167Z,30.13
2019-01-04T12:42:30.592Z,30.13
2019-01-04T12:44:58.890Z,28.17
2019-01-04T12:47:27.308Z,28.30
2019-01-04T12:49:55.606Z,27.07
2019-01-04T12:52:23.907Z,25.73
2019-01-04T12:54:54.870Z,26.00
2019-01-04T12:57:23.200Z,27.07
2019-01-04T12:59:51.763Z,24.57
2019-01-04T13:02:29.662Z,24.47
2019-01-04T13:04:57.968Z,24.13
2019-01-04T13:07:26.255Z,25.03
2019-01-04T13:09:54.558Z,27.33
2019-01-04T13:12:23.184Z,23.57
2019-01-04T13:14:51.772Z,23.27
2019-01-04T13:17:20.085Z,23.03
2019-01-04T13:19:50.018Z,24.57
2019-01-04T13:22:20.433Z,24.17
2019-01-04T13:24:48.779Z,23.63
2019-01-04T13:27:18.781Z,21.73
2019-01-04T13:29:47.085Z,22.63
2019-01-04T13:32:15.395Z,20.87
2019-01-04T13:34:44.236Z,20.17
2019-01-04T13:37:12.621Z,20.43
2019-01-04T13:39:41.895Z,20.90
2019-01-04T13:42:10.288Z,20.73
2019-01-04T13:44:38.633Z,21.67
2019-01-04T13:47:07.019Z,21.90
2019-01-04T13:49:35.395Z,22.00
2019-01-04T13:52:03.700Z,22.07
2019-01-04T13:54:32.061Z,23.67
2019-01-04T13:57:00.377Z,24.50
2019-01-04T13:59:28.777Z,24.43
2019-01-04T14:01:57.155Z,26.03
2019-01-04T14:04:25.458Z,26.97
2019-01-04T14:06:53.783Z,27.20
2019-01-04T14:09:22.071Z,27.17
2019-01-04T14:11:50.442Z,27.67
2019-01-04T14:14:19.262Z,27.77
2019-01-04T14:16:47.688Z,28.70
2019-01-04T14:19:16.018Z,28.40
2019-01-04T14:21:44.422Z,28.23
2019-01-04T14:24:12.784Z,29.70
2019-01-04T14:27:02.140Z,28.57
2019-01-04T14:29:32.054Z,28.77
2019-01-04T14:32:00.361Z,27.93
2019-01-04T14:34:28.745Z,28.27
2019-01-04T14:36:57.102Z,27.77
2019-01-04T14:39:25.412Z,28.40
2019-01-04T14:41:53.688Z,28.33
2019-01-04T14:44:21.994Z,27.23
2019-01-04T14:46:50.348Z,28.20
2019-01-04T14:49:18.718Z,28.73
2019-01-04T14:51:47.085Z,27.00
2019-01-04T14:54:15.900Z,29.23
2019-01-04T14:56:44.219Z,27.80
2019-01-04T14:59:12.584Z,27.73
2019-01-04T15:01:41.358Z,27.87
2019-01-04T15:04:09.655Z,26.87
2019-01-04T15:06:37.983Z,27.77
2019-01-04T15:09:08.969Z,27.83
2019-01-04T15:11:37.357Z,26.53
2019-01-04T15:14:05.662Z,26.30
2019-01-04T15:16:34.077Z,25.47
2019-01-04T15:19:02.403Z,27.20
2019-01-04T15:21:31.063Z,27.17
2019-01-04T15:23:59.373Z,27.10
2019-01-04T15:26:34.055Z,25.87
2019-01-04T15:29:02.392Z,28.03
2019-01-04T15:31:30.779Z,25.67
2019-01-04T15:33:59.095Z,23.57
2019-01-04T15:36:27.544Z,25.07
2019-01-04T15:38:55.985Z,26.07
2019-01-04T15:41:27.042Z,21.70
2019-01-04T15:43:56.663Z,20.77
2019-01-04T15:46:25.525Z,19.97
2019-01-04T15:48:53.888Z,20.37
2019-01-04T15:51:22.273Z,20.87
2019-01-04T15:53:50.638Z,20.30
2019-01-04T15:56:18.962Z,21.13
2019-01-04T15:58:47.356Z,19.57
2019-01-04T16:01:15.961Z,20.03
2019-01-04T16:03:44.807Z,18.93
2019-01-04T16:06:13.106Z,18.83
2019-01-04T16:08:41.402Z,19.27
2019-01-04T16:11:09.781Z,19.13
2019-01-04T16:13:38.092Z,18.40
2019-01-04T16:18:41.584Z,18.17
2019-01-04T16:21:10.495Z,19.63
2019-01-04T16:23:49.107Z,18.40
2019-01-04T16:26:29.464Z,19.43
2019-01-04T16:28:58.723Z,19.57
2019-01-04T16:31:28.657Z,25.20
2019-01-04T16:33:57.575Z,18.43
2019-01-04T16:36:25.889Z,17.17
2019-01-04T16:38:54.289Z,17.33
2019-01-04T16:41:22.579Z,17.20
2019-01-04T16:43:50.887Z,17.43
2019-01-04T16:46:19.177Z,17.87
2019-01-04T16:48:47.731Z,18.10
2019-01-04T16:51:18.837Z,19.70
2019-01-04T16:53:47.897Z,17.67
2019-01-04T16:56:16.449Z,20.10
2019-01-04T16:58:45.282Z,19.57
2019-01-04T17:01:13.656Z,18.27
2019-01-04T17:03:41.952Z,17.17
2019-01-04T17:06:10.331Z,16.90
2019-01-04T17:08:38.701Z,16.93
2019-01-04T17:11:07.090Z,17.73
2019-01-04T17:13:35.586Z,17.83
2019-01-04T17:16:03.900Z,18.40
2019-01-04T17:18:32.202Z,17.97
2019-01-04T17:21:00.499Z,18.67
2019-01-04T17:23:28.932Z,19.87
2019-01-04T17:25:57.266Z,19.57
2019-01-04T17:28:28.428Z,20.83
2019-01-04T17:30:56.744Z,20.40
2019-01-04T17:33:25.191Z,22.00
2019-01-04T17:35:53.472Z,22.27
2019-01-04T17:38:23.049Z,20.00
2019-01-04T17:40:51.345Z,20.90
2019-01-04T17:43:19.715Z,22.50
2019-01-04T17:45:48.004Z,21.10
2019-01-04T17:48:16.308Z,22.23
2019-01-04T17:50:44.588Z,20.27
2019-01-04T17:53:12.883Z,20.53
2019-01-04T17:55:41.202Z,22.07
2019-01-04T17:58:09.503Z,20.50
2019-01-04T18:00:37.791Z,20.53
2019-01-04T18:03:06.105Z,21.77
2019-01-04T18:05:34.401Z,20.87
2019-01-04T18:08:02.705Z,20.63
2019-01-04T18:10:31.007Z,23.00
2019-01-04T18:12:59.377Z,22.57
2019-01-04T18:15:27.751Z,21.70
2019-01-04T18:17:58.704Z,24.57
2019-01-04T18:20:26.101Z,23.27
2019-01-04T18:22:58.511Z,21.93
2019-01-04T18:25:32.825Z,22.80
2019-01-04T18:28:04.572Z,22.33
2019-01-04T18:30:40.254Z,23.53
2019-01-04T18:33:08.657Z,23.73
2019-01-04T18:35:42.015Z,25.73
2019-01-04T18:38:10.300Z,24.33
2019-01-04T18:40:38.675Z,22.83
2019-01-04T18:43:07.036Z,23.83
2019-01-04T18:45:35.494Z,23.47
2019-01-04T18:48:03.854Z,22.90
2019-01-04T18:50:35.152Z,24.20
2019-01-04T18:53:03.773Z,22.00
2019-01-04T18:55:32.076Z,22.77
2019-01-04T18:58:00.632Z,21.10
2019-01-04T19:00:31.794Z,21.17
2019-01-04T19:03:00.180Z,23.30
2019-01-04T19:05:28.658Z,21.50
2019-01-04T19:08:01.534Z,21.20
2019-01-04T19:10:29.846Z,22.70
2019-01-04T19:13:01.408Z,21.50
2019-01-04T19:15:39.178Z,21.03
2019-01-04T19:18:07.635Z,21.77
2019-01-04T19:20:45.820Z,22.63
2019-01-04T19:23:14.204Z,21.63
2019-01-04T19:25:47.245Z,21.43
2019-01-04T19:28:27.447Z,22.60
2019-01-04T19:31:00.672Z,22.63
2019-01-04T19:33:36.616Z,21.03
2019-01-04T19:36:07.847Z,23.43
2019-01-04T19:38:51.569Z,23.83
2019-01-04T19:41:20.228Z,23.17
2019-01-04T19:43:48.931Z,24.57
2019-01-04T19:46:17.248Z,22.97
2019-01-04T19:48:45.600Z,23.90
2019-01-04T19:51:13.903Z,26.23
2019-01-04T19:53:42.193Z,26.60
2019-01-04T19:56:10.507Z,26.80
2019-01-04T19:58:38.875Z,27.00
2019-01-04T20:01:07.155Z,29.27
2019-01-04T20:03:35.702Z,27.87
2019-01-04T20:06:32.763Z,26.80
2019-01-04T20:09:30.885Z,28.20
2019-01-04T20:12:15.945Z,26.33
2019-01-04T20:15:06.788Z,26.40
2019-01-04T20:17:52.794Z,27.27
2019-01-04T20:20:23.994Z,26.10
2019-01-04T20:23:09.382Z,26.93
2019-01-04T20:25:48.233Z,27.60
2019-01-04T20:28:23.932Z,26.13
2019-01-04T20:31:02.910Z,25.97
2019-01-04T20:33:32.870Z,24.87
2019-01-04T20:36:05.817Z,24.97
2019-01-04T20:38:52.176Z,24.17
2019-01-04T20:41:28.220Z,24.33
2019-01-04T20:44:14.249Z,24.03
2019-01-04T20:47:00.535Z,24.20
2019-01-04T20:49:30.543Z,24.00
2019-01-04T20:52:06.317Z,23.43
2019-01-04T20:54:52.698Z,25.73
2019-01-04T20:57:25.155Z,26.17
2019-01-04T20:59:55.135Z,25.90
2019-01-04T21:02:42.407Z,25.90
2019-01-04T21:08:32.860Z,26.20
2019-01-04T21:11:19.189Z,27.10
2019-01-04T21:14:07.497Z,26.40
2019-01-04T21:16:52.810Z,26.13
2019-01-04T21:19:35.095Z,25.03
2019-01-04T21:22:21.339Z,24.87
2019-01-04T21:24:54.292Z,24.80
2019-01-04T21:27:30.018Z,23.70
2019-01-04T21:30:00.196Z,24.63
2019-01-04T21:32:30.251Z,23.77
2019-01-04T21:35:05.951Z,23.87
2019-01-04T21:37:44.863Z,23.20
2019-01-04T21:40:20.935Z,22.83
2019-01-04T21:43:02.754Z,22.30
2019-01-04T21:45:52.227Z,23.53
2019-01-04T21:48:22.150Z,22.57
2019-01-04T21:51:08.794Z,22.90
2019-01-04T21:53:54.956Z,23.27
2019-01-04T21:56:24.975Z,22.47
2019-01-04T21:59:10.364Z,22.23
2019-01-04T22:01:52.962Z,22.43
2019-01-04T22:04:51.540Z,22.50
2019-01-04T22:07:37.696Z,21.50
2019-01-04T22:10:08.012Z,22.53
2019-01-04T22:12:53.688Z,22.10
2019-01-04T22:15:40.054Z,21.93
2019-01-04T22:18:26.242Z,21.57
2019-01-04T22:21:08.335Z,23.07
2019-01-04T22:23:41.368Z,22.40
2019-01-04T22:26:29.887Z,22.77
2019-01-04T22:28:59.924Z,23.10
2019-01-04T22:31:34.291Z,21.97
2019-01-04T22:34:13.682Z,23.17
2019-01-04T22:36:44.028Z,22.10
2019-01-04T22:39:16.820Z,23.23
2019-01-04T22:41:58.703Z,22.37
2019-01-04T22:44:44.954Z,22.80
2019-01-04T22:47:26.539Z,21.80
2019-01-04T22:50:02.274Z,22.87
2019-01-04T22:52:50.486Z,23.20
2019-01-04T22:55:36.681Z,22.90
2019-01-04T22:58:22.789Z,23.13
2019-01-04T23:00:55.681Z,22.40
2019-01-04T23:03:41.855Z,22.20
2019-01-04T23:06:20.879Z,22.77
2019-01-04T23:08:50.894Z,23.40
2019-01-04T23:11:37.056Z,22.80
2019-01-04T23:14:25.230Z,23.20
2019-01-04T23:17:11.735Z,22.83
2019-01-04T23:19:50.616Z,22.57
2019-01-04T23:22:29.093Z,23.87
2019-01-04T23:25:17.312Z,24.07
2019-01-04T23:27:47.352Z,23.73
2019-01-04T23:30:25.894Z,23.43
2019-01-04T23:32:55.849Z,24.30
2019-01-04T23:35:31.433Z,23.93
2019-01-04T23:38:17.505Z,22.43
2019-01-04T23:41:05.459Z,23.10
2019-01-04T23:43:51.947Z,22.47
2019-01-04T23:46:37.879Z,23.57
2019-01-04T23:49:07.830Z,22.67
2019-01-04T23:51:40.760Z,22.50
2019-01-04T23:54:19.842Z,25.27
2019-01-04T23:56:52.696Z,24.60
2019-01-04T23:59:39.013Z,22.73
